sensor_id;sensor_type;location;lat;lon;timestamp;temperature;humidity
2825;DHT22;1420;51.324;12.344;2023-03-31T00:00:22;10.10;99.90
2825;DHT22;1420;51.324;12.344;2023-03-31T00:02:49;10.10;99.90
2825;DHT22;1420;51.324;12.344;2023-03-31T00:05:16;10.10;99.90
2825;DHT22;1420;51.324;12.344;2023-03-31T00:07:43;10.10;99.90
2825;DHT22;1420;51.324;12.344;2023-03-31T00:10:11;10.10;99.90
2825;DHT22;1420;51.324;12.344;2023-03-31T00:12:38;10.20;99.90
2825;DHT22;1420;51.324;12.344;2023-03-31T00:15:05;10.00;99.90
2825;DHT22;1420;51.324;12.344;2023-03-31T00:17:33;10.00;99.90
2825;DHT22;1420;51.324;12.344;2023-03-31T00:20:01;10.00;99.90
2825;DHT22;1420;51.324;12.344;2023-03-31T00:22:28;10.00;99.90
2825;DHT22;1420;51.324;12.344;2023-03-31T00:24:55;9.90;99.90
2825;DHT22;1420;51.324;12.344;2023-03-31T00:27:22;9.90;99.90
2825;DHT22;1420;51.324;12.344;2023-03-31T00:29:50;9.90;99.90
2825;DHT22;1420;51.324;12.344;2023-03-31T00:32:17;9.80;99.90
2825;DHT22;1420;51.324;12.344;2023-03-31T00:34:45;10.00;99.90
2825;DHT22;1420;51.324;12.344;2023-03-31T00:37:12;9.90;99.90
2825;DHT22;1420;51.324;12.344;2023-03-31T00:39:42;9.90;99.90
2825;DHT22;1420;51.324;12.344;2023-03-31T00:42:10;9.90;99.90
2825;DHT22;1420;51.324;12.344;2023-03-31T00:47:29;9.90;99.90
2825;DHT22;1420;51.324;12.344;2023-03-31T00:49:56;9.90;99.90
2825;DHT22;1420;51.324;12.344;2023-03-31T00:52:27;9.90;99.90
2825;DHT22;1420;51.324;12.344;2023-03-31T00:54:55;9.80;99.90
2825;DHT22;1420;51.324;12.344;2023-03-31T00:57:22;9.80;99.90
2825;DHT22;1420;51.324;12.344;2023-03-31T00:59:51;9.90;99.90
2825;DHT22;1420;51.324;12.344;2023-03-31T01:02:17;9.90;99.90
2825;DHT22;1420;51.324;12.344;2023-03-31T01:04:47;10.00;99.90
2825;DHT22;1420;51.324;12.344;2023-03-31T01:07:15;10.00;99.90
2825;DHT22;1420;51.324;12.344;2023-03-31T01:09:42;9.90;99.90
2825;DHT22;1420;51.324;12.344;2023-03-31T01:12:08;9.90;99.90
2825;DHT22;1420;51.324;12.344;2023-03-31T01:14:35;10.00;99.90
2825;DHT22;1420;51.324;12.344;2023-03-31T01:17:03;10.00;99.90
2825;DHT22;1420;51.324;12.344;2023-03-31T01:19:40;10.00;99.90
2825;DHT22;1420;51.324;12.344;2023-03-31T01:24:53;10.00;99.90
2825;DHT22;1420;51.324;12.344;2023-03-31T01:32:38;10.00;99.90
2825;DHT22;1420;51.324;12.344;2023-03-31T01:35:24;10.00;99.90
2825;DHT22;1420;51.324;12.344;2023-03-31T01:40:32;9.90;99.90
2825;DHT22;1420;51.324;12.344;2023-03-31T01:43:15;9.90;99.90
2825;DHT22;1420;51.324;12.344;2023-03-31T01:48:14;9.80;99.90
2825;DHT22;1420;51.324;12.344;2023-03-31T01:51:28;9.70;99.90
2825;DHT22;1420;51.324;12.344;2023-03-31T01:53:42;9.60;99.90
2825;DHT22;1420;51.324;12.344;2023-03-31T01:56:09;9.60;99.90
2825;DHT22;1420;51.324;12.344;2023-03-31T01:58:36;9.60;99.90
2825;DHT22;1420;51.324;12.344;2023-03-31T02:01:07;9.70;99.90
2825;DHT22;1420;51.324;12.344;2023-03-31T02:03:38;9.60;99.90
2825;DHT22;1420;51.324;12.344;2023-03-31T02:06:08;9.70;99.90
2825;DHT22;1420;51.324;12.344;2023-03-31T02:08:44;9.70;99.90
2825;DHT22;1420;51.324;12.344;2023-03-31T02:11:12;9.60;99.90
2825;DHT22;1420;51.324;12.344;2023-03-31T02:13:40;9.70;99.90
2825;DHT22;1420;51.324;12.344;2023-03-31T02:16:08;9.60;99.90
2825;DHT22;1420;51.324;12.344;2023-03-31T02:18:34;9.60;99.90
2825;DHT22;1420;51.324;12.344;2023-03-31T02:21:01;9.70;99.90
2825;DHT22;1420;51.324;12.344;2023-03-31T02:23:28;9.80;99.90
2825;DHT22;1420;51.324;12.344;2023-03-31T02:26:14;9.70;99.90
2825;DHT22;1420;51.324;12.344;2023-03-31T02:28:40;9.60;99.90
2825;DHT22;1420;51.324;12.344;2023-03-31T02:31:25;9.60;99.90
2825;DHT22;1420;51.324;12.344;2023-03-31T02:33:50;9.70;99.90
2825;DHT22;1420;51.324;12.344;2023-03-31T02:36:18;9.70;99.90
2825;DHT22;1420;51.324;12.344;2023-03-31T02:38:47;9.70;99.90
2825;DHT22;1420;51.324;12.344;2023-03-31T02:41:13;9.80;99.90
2825;DHT22;1420;51.324;12.344;2023-03-31T02:43:41;9.80;99.90
2825;DHT22;1420;51.324;12.344;2023-03-31T02:46:09;9.90;99.90
2825;DHT22;1420;51.324;12.344;2023-03-31T02:48:38;9.90;99.90
2825;DHT22;1420;51.324;12.344;2023-03-31T02:51:19;9.80;99.90
2825;DHT22;1420;51.324;12.344;2023-03-31T02:56:53;9.80;99.90
2825;DHT22;1420;51.324;12.344;2023-03-31T02:59:19;10.00;99.90
2825;DHT22;1420;51.324;12.344;2023-03-31T03:01:58;9.90;99.90
2825;DHT22;1420;51.324;12.344;2023-03-31T03:04:35;9.90;99.90
2825;DHT22;1420;51.324;12.344;2023-03-31T03:07:07;10.00;99.90
2825;DHT22;1420;51.324;12.344;2023-03-31T03:12:24;10.10;99.90
2825;DHT22;1420;51.324;12.344;2023-03-31T03:17:33;10.10;99.90
2825;DHT22;1420;51.324;12.344;2023-03-31T03:19:59;10.20;99.90
2825;DHT22;1420;51.324;12.344;2023-03-31T03:22:26;10.10;99.90
2825;DHT22;1420;51.324;12.344;2023-03-31T03:24:53;10.10;99.90
2825;DHT22;1420;51.324;12.344;2023-03-31T03:27:21;10.10;99.90
2825;DHT22;1420;51.324;12.344;2023-03-31T03:29:49;10.10;99.90
2825;DHT22;1420;51.324;12.344;2023-03-31T03:32:16;10.00;99.90
2825;DHT22;1420;51.324;12.344;2023-03-31T03:34:43;10.10;99.90
2825;DHT22;1420;51.324;12.344;2023-03-31T03:37:10;10.10;99.90
2825;DHT22;1420;51.324;12.344;2023-03-31T03:39:37;10.00;99.90
2825;DHT22;1420;51.324;12.344;2023-03-31T03:42:05;9.90;99.90
2825;DHT22;1420;51.324;12.344;2023-03-31T03:44:32;10.00;99.90
2825;DHT22;1420;51.324;12.344;2023-03-31T03:46:59;10.00;99.90
2825;DHT22;1420;51.324;12.344;2023-03-31T03:49:26;10.00;99.90
2825;DHT22;1420;51.324;12.344;2023-03-31T03:51:54;10.00;99.90
2825;DHT22;1420;51.324;12.344;2023-03-31T03:54:22;10.00;99.90
2825;DHT22;1420;51.324;12.344;2023-03-31T03:56:49;10.00;99.90
2825;DHT22;1420;51.324;12.344;2023-03-31T03:59:16;9.90;99.90
2825;DHT22;1420;51.324;12.344;2023-03-31T04:01:43;9.90;99.90
2825;DHT22;1420;51.324;12.344;2023-03-31T04:04:10;9.90;99.90
2825;DHT22;1420;51.324;12.344;2023-03-31T04:06:38;10.00;99.90
2825;DHT22;1420;51.324;12.344;2023-03-31T04:09:06;10.00;99.90
2825;DHT22;1420;51.324;12.344;2023-03-31T04:11:33;10.00;99.90
2825;DHT22;1420;51.324;12.344;2023-03-31T04:14:00;10.10;99.90
2825;DHT22;1420;51.324;12.344;2023-03-31T04:16:28;10.10;99.90
2825;DHT22;1420;51.324;12.344;2023-03-31T04:18:56;10.10;99.90
2825;DHT22;1420;51.324;12.344;2023-03-31T04:21:23;10.00;99.90
2825;DHT22;1420;51.324;12.344;2023-03-31T04:23:51;10.10;99.90
2825;DHT22;1420;51.324;12.344;2023-03-31T04:26:18;10.10;99.90
2825;DHT22;1420;51.324;12.344;2023-03-31T04:28:45;10.10;99.90
2825;DHT22;1420;51.324;12.344;2023-03-31T04:31:13;10.20;99.90
2825;DHT22;1420;51.324;12.344;2023-03-31T04:33:41;10.30;99.90
2825;DHT22;1420;51.324;12.344;2023-03-31T04:36:08;10.20;99.90
2825;DHT22;1420;51.324;12.344;2023-03-31T04:38:40;10.20;99.90
2825;DHT22;1420;51.324;12.344;2023-03-31T04:41:07;10.30;99.90
2825;DHT22;1420;51.324;12.344;2023-03-31T04:43:34;10.30;99.90
2825;DHT22;1420;51.324;12.344;2023-03-31T04:46:02;10.30;99.90
2825;DHT22;1420;51.324;12.344;2023-03-31T04:48:29;10.30;99.90
2825;DHT22;1420;51.324;12.344;2023-03-31T04:50:56;10.30;99.90
2825;DHT22;1420;51.324;12.344;2023-03-31T04:53:24;10.20;99.90
2825;DHT22;1420;51.324;12.344;2023-03-31T04:55:51;10.20;99.90
2825;DHT22;1420;51.324;12.344;2023-03-31T04:58:19;10.20;99.90
2825;DHT22;1420;51.324;12.344;2023-03-31T05:00:46;10.20;99.90
2825;DHT22;1420;51.324;12.344;2023-03-31T05:03:13;10.20;99.90
2825;DHT22;1420;51.324;12.344;2023-03-31T05:05:40;10.30;99.90
2825;DHT22;1420;51.324;12.344;2023-03-31T05:08:08;10.30;99.90
2825;DHT22;1420;51.324;12.344;2023-03-31T05:10:35;10.20;99.90
2825;DHT22;1420;51.324;12.344;2023-03-31T05:13:03;10.40;99.90
2825;DHT22;1420;51.324;12.344;2023-03-31T05:15:30;10.50;99.90
2825;DHT22;1420;51.324;12.344;2023-03-31T05:17:57;10.50;99.90
2825;DHT22;1420;51.324;12.344;2023-03-31T05:20:24;10.70;99.90
2825;DHT22;1420;51.324;12.344;2023-03-31T05:22:52;10.70;99.90
2825;DHT22;1420;51.324;12.344;2023-03-31T05:25:20;10.70;99.90
2825;DHT22;1420;51.324;12.344;2023-03-31T05:27:47;10.60;99.90
2825;DHT22;1420;51.324;12.344;2023-03-31T05:30:15;10.70;99.90
2825;DHT22;1420;51.324;12.344;2023-03-31T05:32:44;10.50;99.90
2825;DHT22;1420;51.324;12.344;2023-03-31T05:35:13;10.50;99.90
2825;DHT22;1420;51.324;12.344;2023-03-31T05:37:44;10.30;99.90
2825;DHT22;1420;51.324;12.344;2023-03-31T05:40:12;10.30;99.90
2825;DHT22;1420;51.324;12.344;2023-03-31T05:42:39;10.30;99.90
2825;DHT22;1420;51.324;12.344;2023-03-31T05:45:07;10.40;99.90
2825;DHT22;1420;51.324;12.344;2023-03-31T05:47:35;10.60;99.90
2825;DHT22;1420;51.324;12.344;2023-03-31T05:50:03;10.60;99.90
2825;DHT22;1420;51.324;12.344;2023-03-31T05:52:30;10.70;99.90
2825;DHT22;1420;51.324;12.344;2023-03-31T05:54:58;11.10;99.90
2825;DHT22;1420;51.324;12.344;2023-03-31T05:57:26;11.60;99.90
2825;DHT22;1420;51.324;12.344;2023-03-31T05:59:54;11.80;99.90
2825;DHT22;1420;51.324;12.344;2023-03-31T06:02:22;11.80;99.90
2825;DHT22;1420;51.324;12.344;2023-03-31T06:04:50;11.70;99.90
2825;DHT22;1420;51.324;12.344;2023-03-31T06:07:17;11.80;99.90
2825;DHT22;1420;51.324;12.344;2023-03-31T06:09:44;11.60;99.90
2825;DHT22;1420;51.324;12.344;2023-03-31T06:12:12;11.30;99.90
2825;DHT22;1420;51.324;12.344;2023-03-31T06:14:40;11.40;99.90
2825;DHT22;1420;51.324;12.344;2023-03-31T06:17:07;11.30;99.90
2825;DHT22;1420;51.324;12.344;2023-03-31T06:19:34;11.20;99.90
2825;DHT22;1420;51.324;12.344;2023-03-31T06:22:02;11.20;99.90
2825;DHT22;1420;51.324;12.344;2023-03-31T06:24:29;11.10;99.90
2825;DHT22;1420;51.324;12.344;2023-03-31T06:26:56;11.20;99.90
2825;DHT22;1420;51.324;12.344;2023-03-31T06:29:24;10.90;99.90
2825;DHT22;1420;51.324;12.344;2023-03-31T06:31:51;10.80;99.90
2825;DHT22;1420;51.324;12.344;2023-03-31T06:34:20;10.90;99.90
2825;DHT22;1420;51.324;12.344;2023-03-31T06:36:47;10.80;99.90
2825;DHT22;1420;51.324;12.344;2023-03-31T06:39:14;10.90;99.90
2825;DHT22;1420;51.324;12.344;2023-03-31T06:41:41;10.90;99.90
2825;DHT22;1420;51.324;12.344;2023-03-31T06:44:08;10.90;99.90
2825;DHT22;1420;51.324;12.344;2023-03-31T06:46:36;10.90;99.90
2825;DHT22;1420;51.324;12.344;2023-03-31T06:49:03;11.10;99.90
2825;DHT22;1420;51.324;12.344;2023-03-31T06:51:30;11.00;99.90
2825;DHT22;1420;51.324;12.344;2023-03-31T06:53:57;11.20;99.90
2825;DHT22;1420;51.324;12.344;2023-03-31T06:56:25;11.20;99.90
2825;DHT22;1420;51.324;12.344;2023-03-31T06:58:53;11.20;99.90
2825;DHT22;1420;51.324;12.344;2023-03-31T07:01:20;11.20;99.90
2825;DHT22;1420;51.324;12.344;2023-03-31T07:03:48;11.30;99.90
2825;DHT22;1420;51.324;12.344;2023-03-31T07:06:15;11.30;99.90
2825;DHT22;1420;51.324;12.344;2023-03-31T07:08:42;11.50;99.90
2825;DHT22;1420;51.324;12.344;2023-03-31T07:11:09;11.60;99.90
2825;DHT22;1420;51.324;12.344;2023-03-31T07:13:37;11.60;99.90
2825;DHT22;1420;51.324;12.344;2023-03-31T07:16:05;11.50;99.90
2825;DHT22;1420;51.324;12.344;2023-03-31T07:18:32;11.60;99.90
2825;DHT22;1420;51.324;12.344;2023-03-31T07:20:59;11.60;99.90
2825;DHT22;1420;51.324;12.344;2023-03-31T07:23:26;11.70;99.90
2825;DHT22;1420;51.324;12.344;2023-03-31T07:25:53;11.60;99.90
2825;DHT22;1420;51.324;12.344;2023-03-31T07:28:21;11.70;99.90
2825;DHT22;1420;51.324;12.344;2023-03-31T07:30:48;11.70;99.90
2825;DHT22;1420;51.324;12.344;2023-03-31T07:33:15;11.80;99.90
2825;DHT22;1420;51.324;12.344;2023-03-31T07:35:42;11.80;99.90
2825;DHT22;1420;51.324;12.344;2023-03-31T07:38:10;11.90;99.90
2825;DHT22;1420;51.324;12.344;2023-03-31T07:40:37;12.00;99.90
2825;DHT22;1420;51.324;12.344;2023-03-31T07:43:04;12.00;99.90
2825;DHT22;1420;51.324;12.344;2023-03-31T07:45:32;12.30;99.90
2825;DHT22;1420;51.324;12.344;2023-03-31T07:48:00;12.30;99.90
2825;DHT22;1420;51.324;12.344;2023-03-31T07:50:27;12.30;99.90
2825;DHT22;1420;51.324;12.344;2023-03-31T07:52:54;12.30;99.90
2825;DHT22;1420;51.324;12.344;2023-03-31T07:55:22;12.40;99.90
2825;DHT22;1420;51.324;12.344;2023-03-31T07:57:49;12.50;99.90
2825;DHT22;1420;51.324;12.344;2023-03-31T08:00:18;12.50;99.90
2825;DHT22;1420;51.324;12.344;2023-03-31T08:02:45;12.70;99.90
2825;DHT22;1420;51.324;12.344;2023-03-31T08:05:13;12.90;99.90
2825;DHT22;1420;51.324;12.344;2023-03-31T08:07:40;13.20;99.90
2825;DHT22;1420;51.324;12.344;2023-03-31T08:10:09;12.90;99.90
2825;DHT22;1420;51.324;12.344;2023-03-31T08:12:35;12.80;99.90
2825;DHT22;1420;51.324;12.344;2023-03-31T08:15:04;12.90;99.90
2825;DHT22;1420;51.324;12.344;2023-03-31T08:17:31;12.80;99.90
2825;DHT22;1420;51.324;12.344;2023-03-31T08:19:59;13.10;99.90
2825;DHT22;1420;51.324;12.344;2023-03-31T08:22:27;13.10;99.90
2825;DHT22;1420;51.324;12.344;2023-03-31T08:24:55;13.10;99.90
2825;DHT22;1420;51.324;12.344;2023-03-31T08:27:22;13.10;99.90
2825;DHT22;1420;51.324;12.344;2023-03-31T08:29:49;13.20;99.90
2825;DHT22;1420;51.324;12.344;2023-03-31T08:32:16;13.10;99.90
2825;DHT22;1420;51.324;12.344;2023-03-31T08:34:43;13.20;99.90
2825;DHT22;1420;51.324;12.344;2023-03-31T08:37:11;12.90;99.90
2825;DHT22;1420;51.324;12.344;2023-03-31T08:39:39;12.80;99.90
2825;DHT22;1420;51.324;12.344;2023-03-31T08:42:09;12.80;99.90
2825;DHT22;1420;51.324;12.344;2023-03-31T08:44:35;12.90;99.90
2825;DHT22;1420;51.324;12.344;2023-03-31T08:47:01;12.70;99.90
2825;DHT22;1420;51.324;12.344;2023-03-31T08:49:30;12.60;99.90
2825;DHT22;1420;51.324;12.344;2023-03-31T08:51:57;12.40;99.90
2825;DHT22;1420;51.324;12.344;2023-03-31T08:54:32;12.40;99.90
2825;DHT22;1420;51.324;12.344;2023-03-31T08:57:02;12.30;99.90
2825;DHT22;1420;51.324;12.344;2023-03-31T08:59:30;12.20;99.90
2825;DHT22;1420;51.324;12.344;2023-03-31T09:02:01;12.10;99.90
2825;DHT22;1420;51.324;12.344;2023-03-31T09:04:42;12.10;99.90
2825;DHT22;1420;51.324;12.344;2023-03-31T09:07:11;12.00;99.90
2825;DHT22;1420;51.324;12.344;2023-03-31T09:09:45;12.00;99.90
2825;DHT22;1420;51.324;12.344;2023-03-31T09:12:10;12.00;99.90
2825;DHT22;1420;51.324;12.344;2023-03-31T09:14:40;12.00;99.90
2825;DHT22;1420;51.324;12.344;2023-03-31T09:17:12;12.00;99.90
2825;DHT22;1420;51.324;12.344;2023-03-31T09:19:38;12.00;99.90
2825;DHT22;1420;51.324;12.344;2023-03-31T09:22:05;11.90;99.90
2825;DHT22;1420;51.324;12.344;2023-03-31T09:24:35;11.80;99.90
2825;DHT22;1420;51.324;12.344;2023-03-31T09:27:03;11.70;99.90
2825;DHT22;1420;51.324;12.344;2023-03-31T09:29:31;11.70;99.90
2825;DHT22;1420;51.324;12.344;2023-03-31T09:32:05;11.80;99.90
2825;DHT22;1420;51.324;12.344;2023-03-31T09:34:30;12.00;99.90
2825;DHT22;1420;51.324;12.344;2023-03-31T09:36:56;11.90;99.90
2825;DHT22;1420;51.324;12.344;2023-03-31T09:39:23;12.00;99.90
2825;DHT22;1420;51.324;12.344;2023-03-31T09:41:50;12.00;99.90
2825;DHT22;1420;51.324;12.344;2023-03-31T09:44:22;12.00;99.90
2825;DHT22;1420;51.324;12.344;2023-03-31T09:46:48;12.00;99.90
2825;DHT22;1420;51.324;12.344;2023-03-31T09:49:17;11.90;99.90
2825;DHT22;1420;51.324;12.344;2023-03-31T09:51:44;12.00;99.90
2825;DHT22;1420;51.324;12.344;2023-03-31T09:56:46;12.00;99.90
2825;DHT22;1420;51.324;12.344;2023-03-31T09:59:15;11.90;99.90
2825;DHT22;1420;51.324;12.344;2023-03-31T10:01:43;12.00;99.90
2825;DHT22;1420;51.324;12.344;2023-03-31T10:04:15;11.90;99.90
2825;DHT22;1420;51.324;12.344;2023-03-31T10:06:39;11.70;99.90
2825;DHT22;1420;51.324;12.344;2023-03-31T10:09:06;11.70;99.90
2825;DHT22;1420;51.324;12.344;2023-03-31T10:11:33;11.60;99.90
2825;DHT22;1420;51.324;12.344;2023-03-31T10:14:05;11.60;99.90
2825;DHT22;1420;51.324;12.344;2023-03-31T10:16:32;11.60;99.90
2825;DHT22;1420;51.324;12.344;2023-03-31T10:21:37;11.40;99.90
2825;DHT22;1420;51.324;12.344;2023-03-31T10:24:08;11.30;99.90
2825;DHT22;1420;51.324;12.344;2023-03-31T10:26:35;11.30;99.90
2825;DHT22;1420;51.324;12.344;2023-03-31T10:29:07;11.10;99.90
2825;DHT22;1420;51.324;12.344;2023-03-31T10:31:34;11.10;99.90
2825;DHT22;1420;51.324;12.344;2023-03-31T10:34:03;11.00;99.90
2825;DHT22;1420;51.324;12.344;2023-03-31T10:36:27;11.00;99.90
2825;DHT22;1420;51.324;12.344;2023-03-31T10:38:55;11.00;99.90
2825;DHT22;1420;51.324;12.344;2023-03-31T10:41:26;11.00;99.90
2825;DHT22;1420;51.324;12.344;2023-03-31T10:43:53;11.10;99.90
2825;DHT22;1420;51.324;12.344;2023-03-31T10:46:20;10.90;99.90
2825;DHT22;1420;51.324;12.344;2023-03-31T10:48:47;10.90;99.90
2825;DHT22;1420;51.324;12.344;2023-03-31T10:51:17;10.90;99.90
2825;DHT22;1420;51.324;12.344;2023-03-31T10:53:45;10.90;99.90
2825;DHT22;1420;51.324;12.344;2023-03-31T10:56:34;10.90;99.90
2825;DHT22;1420;51.324;12.344;2023-03-31T10:59:37;10.90;99.90
2825;DHT22;1420;51.324;12.344;2023-03-31T11:05:23;10.90;99.90
2825;DHT22;1420;51.324;12.344;2023-03-31T11:07:58;10.90;99.90
2825;DHT22;1420;51.324;12.344;2023-03-31T11:10:30;10.80;99.90
2825;DHT22;1420;51.324;12.344;2023-03-31T11:12:59;10.90;99.90
2825;DHT22;1420;51.324;12.344;2023-03-31T11:15:37;10.90;99.90
2825;DHT22;1420;51.324;12.344;2023-03-31T11:20:44;10.80;99.90
2825;DHT22;1420;51.324;12.344;2023-03-31T11:23:14;10.80;99.90
2825;DHT22;1420;51.324;12.344;2023-03-31T11:25:46;10.80;99.90
2825;DHT22;1420;51.324;12.344;2023-03-31T11:28:17;10.70;99.90
2825;DHT22;1420;51.324;12.344;2023-03-31T11:30:49;10.70;99.90
2825;DHT22;1420;51.324;12.344;2023-03-31T11:33:25;10.80;99.90
2825;DHT22;1420;51.324;12.344;2023-03-31T11:36:01;10.80;99.90
2825;DHT22;1420;51.324;12.344;2023-03-31T11:38:32;10.70;99.90
2825;DHT22;1420;51.324;12.344;2023-03-31T11:41:01;10.60;99.90
2825;DHT22;1420;51.324;12.344;2023-03-31T11:43:31;10.60;99.90
2825;DHT22;1420;51.324;12.344;2023-03-31T11:46:13;10.60;99.90
2825;DHT22;1420;51.324;12.344;2023-03-31T11:51:38;10.50;99.90
2825;DHT22;1420;51.324;12.344;2023-03-31T11:54:01;10.30;99.90
2825;DHT22;1420;51.324;12.344;2023-03-31T11:56:32;10.40;99.90
2825;DHT22;1420;51.324;12.344;2023-03-31T11:58:56;10.30;99.90
2825;DHT22;1420;51.324;12.344;2023-03-31T12:01:31;10.30;99.90
2825;DHT22;1420;51.324;12.344;2023-03-31T12:04:02;10.30;99.90
2825;DHT22;1420;51.324;12.344;2023-03-31T12:06:29;10.40;99.90
2825;DHT22;1420;51.324;12.344;2023-03-31T12:09:04;10.30;99.90
2825;DHT22;1420;51.324;12.344;2023-03-31T12:11:33;10.40;99.90
2825;DHT22;1420;51.324;12.344;2023-03-31T12:14:20;10.50;99.90
2825;DHT22;1420;51.324;12.344;2023-03-31T12:16:44;10.50;99.90
2825;DHT22;1420;51.324;12.344;2023-03-31T12:19:16;10.50;99.90
2825;DHT22;1420;51.324;12.344;2023-03-31T12:21:46;10.60;99.90
2825;DHT22;1420;51.324;12.344;2023-03-31T12:24:11;10.70;99.90
2825;DHT22;1420;51.324;12.344;2023-03-31T12:27:02;10.80;99.90
2825;DHT22;1420;51.324;12.344;2023-03-31T12:29:31;11.10;99.90
2825;DHT22;1420;51.324;12.344;2023-03-31T12:31:58;11.00;99.90
2825;DHT22;1420;51.324;12.344;2023-03-31T12:34:24;11.20;99.90
2825;DHT22;1420;51.324;12.344;2023-03-31T12:37:08;11.30;99.90
2825;DHT22;1420;51.324;12.344;2023-03-31T12:39:46;11.30;99.90
2825;DHT22;1420;51.324;12.344;2023-03-31T12:42:21;11.30;99.90
2825;DHT22;1420;51.324;12.344;2023-03-31T12:45:19;11.20;99.90
2825;DHT22;1420;51.324;12.344;2023-03-31T12:50:27;11.40;99.90
2825;DHT22;1420;51.324;12.344;2023-03-31T12:55:42;11.50;99.90
2825;DHT22;1420;51.324;12.344;2023-03-31T12:58:36;11.90;99.90
2825;DHT22;1420;51.324;12.344;2023-03-31T13:01:04;11.80;99.90
2825;DHT22;1420;51.324;12.344;2023-03-31T13:03:37;12.00;99.90
2825;DHT22;1420;51.324;12.344;2023-03-31T13:06:03;12.40;99.90
2825;DHT22;1420;51.324;12.344;2023-03-31T13:11:09;13.10;99.90
2825;DHT22;1420;51.324;12.344;2023-03-31T13:13:46;13.40;99.90
2825;DHT22;1420;51.324;12.344;2023-03-31T13:16:18;13.30;99.90
2825;DHT22;1420;51.324;12.344;2023-03-31T13:18:42;13.40;99.90
2825;DHT22;1420;51.324;12.344;2023-03-31T13:21:09;13.20;99.90
2825;DHT22;1420;51.324;12.344;2023-03-31T13:23:37;13.40;99.90
2825;DHT22;1420;51.324;12.344;2023-03-31T13:26:05;13.40;99.90
2825;DHT22;1420;51.324;12.344;2023-03-31T13:28:38;13.30;99.90
2825;DHT22;1420;51.324;12.344;2023-03-31T13:31:05;13.40;99.90
2825;DHT22;1420;51.324;12.344;2023-03-31T13:36:29;13.40;99.90
2825;DHT22;1420;51.324;12.344;2023-03-31T13:39:02;13.50;99.90
2825;DHT22;1420;51.324;12.344;2023-03-31T13:41:32;13.50;99.90
2825;DHT22;1420;51.324;12.344;2023-03-31T13:44:09;13.50;99.90
2825;DHT22;1420;51.324;12.344;2023-03-31T13:46:58;13.80;99.90
2825;DHT22;1420;51.324;12.344;2023-03-31T13:49:38;13.90;99.90
2825;DHT22;1420;51.324;12.344;2023-03-31T13:51:58;13.80;99.90
2825;DHT22;1420;51.324;12.344;2023-03-31T13:59:55;14.10;99.90
2825;DHT22;1420;51.324;12.344;2023-03-31T14:02:35;14.40;99.90
2825;DHT22;1420;51.324;12.344;2023-03-31T14:07:45;14.40;99.90
2825;DHT22;1420;51.324;12.344;2023-03-31T14:10:22;14.50;99.90
2825;DHT22;1420;51.324;12.344;2023-03-31T14:12:48;14.30;99.90
2825;DHT22;1420;51.324;12.344;2023-03-31T14:15:17;14.10;99.90
2825;DHT22;1420;51.324;12.344;2023-03-31T14:17:43;14.30;99.90
2825;DHT22;1420;51.324;12.344;2023-03-31T14:20:32;14.30;99.90
2825;DHT22;1420;51.324;12.344;2023-03-31T14:23:11;14.10;99.90
2825;DHT22;1420;51.324;12.344;2023-03-31T14:28:24;13.60;99.90
2825;DHT22;1420;51.324;12.344;2023-03-31T14:33:43;13.20;99.90
2825;DHT22;1420;51.324;12.344;2023-03-31T14:36:15;13.10;99.90
2825;DHT22;1420;51.324;12.344;2023-03-31T14:38:40;13.00;99.90
2825;DHT22;1420;51.324;12.344;2023-03-31T14:41:13;12.90;99.90
2825;DHT22;1420;51.324;12.344;2023-03-31T14:43:35;11.60;99.90
2825;DHT22;1420;51.324;12.344;2023-03-31T14:46:02;10.80;99.90
2825;DHT22;1420;51.324;12.344;2023-03-31T14:48:31;10.50;99.90
2825;DHT22;1420;51.324;12.344;2023-03-31T14:50:59;10.30;99.90
2825;DHT22;1420;51.324;12.344;2023-03-31T14:53:24;10.20;99.90
2825;DHT22;1420;51.324;12.344;2023-03-31T14:55:52;10.00;99.90
2825;DHT22;1420;51.324;12.344;2023-03-31T14:58:25;10.00;99.90
2825;DHT22;1420;51.324;12.344;2023-03-31T15:00:51;10.20;99.90
2825;DHT22;1420;51.324;12.344;2023-03-31T15:03:19;10.50;99.90
2825;DHT22;1420;51.324;12.344;2023-03-31T15:05:46;10.50;99.90
2825;DHT22;1420;51.324;12.344;2023-03-31T15:08:17;11.60;99.90
2825;DHT22;1420;51.324;12.344;2023-03-31T15:10:43;11.50;99.90
2825;DHT22;1420;51.324;12.344;2023-03-31T15:13:11;11.50;99.90
2825;DHT22;1420;51.324;12.344;2023-03-31T15:15:37;11.40;99.90
2825;DHT22;1420;51.324;12.344;2023-03-31T15:18:04;11.40;99.90
2825;DHT22;1420;51.324;12.344;2023-03-31T15:20:36;11.20;99.90
2825;DHT22;1420;51.324;12.344;2023-03-31T15:23:04;11.00;99.90
2825;DHT22;1420;51.324;12.344;2023-03-31T15:25:32;11.10;99.90
2825;DHT22;1420;51.324;12.344;2023-03-31T15:28:06;11.30;99.90
2825;DHT22;1420;51.324;12.344;2023-03-31T15:30:33;11.30;99.90
2825;DHT22;1420;51.324;12.344;2023-03-31T15:33:04;11.30;99.90
2825;DHT22;1420;51.324;12.344;2023-03-31T15:35:31;11.60;99.90
2825;DHT22;1420;51.324;12.344;2023-03-31T15:37:58;11.60;99.90
2825;DHT22;1420;51.324;12.344;2023-03-31T15:40:26;11.70;99.90
2825;DHT22;1420;51.324;12.344;2023-03-31T15:42:57;11.60;99.90
2825;DHT22;1420;51.324;12.344;2023-03-31T15:45:37;11.50;99.90
2825;DHT22;1420;51.324;12.344;2023-03-31T15:48:08;11.50;99.90
2825;DHT22;1420;51.324;12.344;2023-03-31T15:50:34;11.30;99.90
2825;DHT22;1420;51.324;12.344;2023-03-31T15:53:01;11.30;99.90
2825;DHT22;1420;51.324;12.344;2023-03-31T15:55:29;11.20;99.90
2825;DHT22;1420;51.324;12.344;2023-03-31T15:57:56;11.20;99.90
2825;DHT22;1420;51.324;12.344;2023-03-31T16:00:47;11.10;99.90
2825;DHT22;1420;51.324;12.344;2023-03-31T16:03:14;11.10;99.90
2825;DHT22;1420;51.324;12.344;2023-03-31T16:05:41;11.10;99.90
2825;DHT22;1420;51.324;12.344;2023-03-31T16:08:12;11.00;99.90
2825;DHT22;1420;51.324;12.344;2023-03-31T16:10:38;10.90;99.90
2825;DHT22;1420;51.324;12.344;2023-03-31T16:13:06;10.80;99.90
2825;DHT22;1420;51.324;12.344;2023-03-31T16:15:35;10.90;99.90
2825;DHT22;1420;51.324;12.344;2023-03-31T16:18:07;10.70;99.90
2825;DHT22;1420;51.324;12.344;2023-03-31T16:20:34;10.70;99.90
2825;DHT22;1420;51.324;12.344;2023-03-31T16:23:12;10.70;99.90
2825;DHT22;1420;51.324;12.344;2023-03-31T16:25:40;10.70;99.90
2825;DHT22;1420;51.324;12.344;2023-03-31T16:28:07;10.80;99.90
2825;DHT22;1420;51.324;12.344;2023-03-31T16:30:37;10.80;99.90
2825;DHT22;1420;51.324;12.344;2023-03-31T16:33:06;10.80;99.90
2825;DHT22;1420;51.324;12.344;2023-03-31T16:35:35;10.80;99.90
2825;DHT22;1420;51.324;12.344;2023-03-31T16:38:01;10.80;99.90
2825;DHT22;1420;51.324;12.344;2023-03-31T16:40:30;10.80;99.90
2825;DHT22;1420;51.324;12.344;2023-03-31T16:43:07;10.90;99.90
2825;DHT22;1420;51.324;12.344;2023-03-31T16:45:34;11.00;99.90
2825;DHT22;1420;51.324;12.344;2023-03-31T16:48:01;10.90;99.90
2825;DHT22;1420;51.324;12.344;2023-03-31T16:50:28;10.80;99.90
2825;DHT22;1420;51.324;12.344;2023-03-31T16:52:56;10.80;99.90
2825;DHT22;1420;51.324;12.344;2023-03-31T16:55:24;10.80;99.90
2825;DHT22;1420;51.324;12.344;2023-03-31T16:57:51;10.80;99.90
2825;DHT22;1420;51.324;12.344;2023-03-31T17:00:19;10.90;99.90
2825;DHT22;1420;51.324;12.344;2023-03-31T17:02:47;10.80;99.90